Skip Navigation Links Skip Navigation Links

Current Weather

Hayward Executive, Hayward, Calif.

For information only: do not use for flight planning or navigation.
Latest weather
Observation time Thursday, December 3, 2020 10:54 PM PST
Local time Thursday, December 3, 2020 11:58 PM PST
Flight conditions Visual Meteorological Conditions
Winds
Wind direction East-Northeast (60°)
Wind speed 5 mph
Visibility 9 mi.
Sky condition
Ceiling unlimited
Sky clear
Temperature 51°F
Dewpoint 37°F
Altimeter 30.32 in.Hg
Derived measurements
Relative humidity 58%
Density altitude -819 ft.
Sea-level pressure 30.35 in.Hg
Remarks
Fully automated report.
Automated weather observing station with precipitation discriminator.
METAR KHWD 040654Z AUTO 06004KT 9SM CLR 11/03 A3032 RMK AO2 SLP276 T01060028

Settings

Location code

InnerDrive.Weather 4.0.6770.0 Release CLR 4.0.30319.42000
Copyright ©2018 Inner Drive Technology. All rights reserved. Portions Copyright ©1986-2018 David Braverman.

Find weather

Site navigation


Skip Navigation Links

Place info

Page info

PayPal - The safer, easier way to pay online!

Return home.

Copyright ©2020 Inner Drive Technology. Purveyors of fine, hand-crafted computer software. Page printed 2020-12-04T07:58:39 UTC.